Paraopeba, Brazil
Current Conditions -  °F | °C
As of 6:00 AM on Wednesday 22 Oct 2014 (Local Time) from SBLS Reporting Station
Broken Clouds Broken Clouds  
Wind Chill: 66°   Ceiling: 7000
Heat Index: 66°   Visibility: 6mi
Dew Point: 59°   Wind: 13mph
Humidity: 78%   Direction: 140°SE
Pressure: 30.09"   Gusts: NA
Location:  19.27°S, 44.4°W
Report Text: SBLS 220800Z 14011KT 9999 SCT020 BKN070 19/15 Q1019
Loading
Personal Weather Stations






























Interactive Weather Map
Tropical Storm Tracking
New forecast layout! Learn more

10-Day Weather Forecast

Advertisements
Track Severe Weather on mobile